Bombinhas, Brazil
Current Conditions -  °F | °C
As of 7:00 PM on Sunday 23 Nov 2014 (Local Time) from SBNF Reporting Station
Broken Clouds Broken Clouds  
Wind Chill: 77°   Ceiling: 4000
Heat Index: 79°   Visibility: 6mi
Dew Point: 68°   Wind: 9mph
Humidity: 74%   Direction: 130°SE
Pressure: 29.94"   Gusts: NA
Location:  27.13°S, 48.53°W
Report Text: SBNF 232100Z 13008KT 9999 SCT025 BKN040 25/20 Q1014
Loading
Personal Weather Stations






























Interactive Weather Map New forecast layout! Learn more

10-Day Weather Forecast

Advertisements
Track Severe Weather on mobile